createdAt,value
2019-05-25T00:01:53.832Z,17.10
2019-05-25T00:04:23.942Z,17.10
2019-05-25T00:06:53.959Z,17.30
2019-05-25T00:09:25.863Z,17.10
2019-05-25T00:11:55.924Z,17.10
2019-05-25T00:14:26.000Z,17.10
2019-05-25T00:16:56.399Z,17.00
2019-05-25T00:19:26.535Z,17.10
2019-05-25T00:21:56.568Z,17.50
2019-05-25T00:24:26.611Z,17.10
2019-05-25T00:26:56.765Z,17.00
2019-05-25T00:29:27.185Z,17.00
2019-05-25T00:31:57.264Z,16.90
2019-05-25T00:34:27.375Z,16.90
2019-05-25T00:36:57.822Z,16.80
2019-05-25T00:39:30.494Z,16.80
2019-05-25T00:42:00.572Z,16.80
2019-05-25T00:44:30.595Z,16.80
2019-05-25T00:47:00.815Z,16.70
2019-05-25T00:49:30.863Z,16.80
2019-05-25T00:52:00.911Z,16.80
2019-05-25T00:54:32.023Z,16.70
2019-05-25T00:57:02.259Z,16.70
2019-05-25T00:59:32.331Z,16.70
2019-05-25T01:02:03.196Z,16.70
2019-05-25T01:04:33.198Z,16.70
2019-05-25T01:07:03.644Z,16.70
2019-05-25T01:09:33.976Z,16.70
2019-05-25T01:12:04.138Z,16.70
2019-05-25T01:14:34.209Z,16.70
2019-05-25T01:17:04.405Z,16.70
2019-05-25T01:19:34.539Z,16.50
2019-05-25T01:22:04.862Z,16.60
2019-05-25T01:24:44.455Z,16.70
2019-05-25T01:27:09.434Z,16.60
2019-05-25T01:29:39.475Z,16.70
2019-05-25T01:34:39.431Z,16.70
2019-05-25T01:37:09.476Z,16.80
2019-05-25T01:39:39.478Z,16.80
2019-05-25T01:42:09.935Z,16.60
2019-05-25T01:44:40.535Z,16.70
2019-05-25T01:47:10.865Z,16.20
2019-05-25T01:49:40.941Z,16.90
2019-05-25T01:52:11.237Z,16.90
2019-05-25T01:54:41.276Z,16.90
2019-05-25T01:57:12.111Z,16.90
2019-05-25T01:59:42.288Z,16.90
2019-05-25T02:02:12.374Z,16.90
2019-05-25T02:04:42.497Z,16.80
2019-05-25T02:09:42.474Z,16.70
2019-05-25T02:12:13.556Z,16.80
2019-05-25T02:14:43.593Z,16.80
2019-05-25T02:17:13.625Z,16.80
2019-05-25T02:19:44.080Z,17.50
2019-05-25T02:22:14.181Z,17.00
2019-05-25T02:24:44.507Z,16.90
2019-05-25T02:27:14.513Z,17.10
2019-05-25T02:29:44.596Z,17.60
2019-05-25T02:32:14.595Z,17.10
2019-05-25T02:34:44.983Z,17.20
2019-05-25T02:37:14.983Z,17.10
2019-05-25T02:39:46.446Z,17.20
2019-05-25T02:42:16.535Z,17.10
2019-05-25T02:44:46.628Z,17.10
2019-05-25T02:47:16.602Z,16.40
2019-05-25T02:49:46.615Z,17.00
2019-05-25T02:52:16.887Z,16.90
2019-05-25T02:54:46.867Z,17.00
2019-05-25T02:57:17.283Z,17.70
2019-05-25T02:59:47.415Z,17.00
2019-05-25T03:02:17.974Z,17.10
2019-05-25T03:04:50.071Z,17.10
2019-05-25T03:07:21.303Z,17.20
2019-05-25T03:12:21.851Z,17.20
2019-05-25T03:14:53.383Z,17.20
2019-05-25T03:17:23.685Z,17.30
2019-05-25T03:19:53.751Z,17.20
2019-05-25T03:22:24.183Z,14.60
2019-05-25T03:24:54.260Z,17.10
2019-05-25T03:29:54.229Z,17.20
2019-05-25T03:32:24.345Z,17.20
2019-05-25T03:34:55.080Z,17.10
2019-05-25T03:37:26.617Z,17.10
2019-05-25T03:39:56.730Z,17.10
2019-05-25T03:42:26.887Z,17.10
2019-05-25T03:44:57.011Z,17.10
2019-05-25T03:47:27.071Z,17.20
2019-05-25T03:49:58.274Z,17.20
2019-05-25T03:52:28.318Z,17.20
2019-05-25T03:57:27.925Z,17.20
2019-05-25T03:59:57.990Z,17.20
2019-05-25T04:02:28.394Z,17.10
2019-05-25T04:07:28.193Z,17.10
2019-05-25T04:09:58.191Z,17.20
2019-05-25T04:12:31.760Z,17.20
2019-05-25T04:15:02.213Z,17.10
2019-05-25T04:17:33.402Z,17.10
2019-05-25T04:20:03.606Z,17.10
2019-05-25T04:22:33.746Z,17.10
2019-05-25T04:25:03.922Z,17.10
2019-05-25T04:27:37.089Z,17.10
2019-05-25T04:30:08.568Z,17.70
2019-05-25T04:32:38.605Z,16.50
2019-05-25T04:35:09.783Z,17.00
2019-05-25T04:37:39.863Z,17.00
2019-05-25T04:40:09.930Z,17.10
2019-05-25T04:42:40.219Z,16.90
2019-05-25T04:45:10.583Z,17.00
2019-05-25T04:47:41.065Z,16.80
2019-05-25T04:50:11.136Z,17.00
2019-05-25T04:52:41.809Z,17.00
2019-05-25T04:57:41.852Z,17.20
2019-05-25T05:00:12.853Z,17.10
2019-05-25T05:02:43.109Z,18.10
2019-05-25T05:05:13.210Z,17.20
2019-05-25T05:07:43.690Z,17.10
2019-05-25T05:10:15.878Z,19.10
2019-05-25T05:12:47.513Z,17.10
2019-05-25T05:15:17.532Z,17.20
2019-05-25T05:17:49.179Z,17.30
2019-05-25T05:20:19.754Z,17.30
2019-05-25T05:22:49.987Z,17.40
2019-05-25T05:25:20.005Z,18.20
2019-05-25T05:27:51.074Z,17.40
2019-05-25T05:30:31.478Z,17.50
2019-05-25T05:33:01.918Z,17.70
2019-05-25T05:35:38.725Z,17.60
2019-05-25T05:38:07.243Z,17.60
2019-05-25T05:40:37.971Z,17.80
2019-05-25T05:43:11.824Z,19.10
2019-05-25T05:45:43.214Z,17.90
2019-05-25T05:48:14.047Z,18.00
2019-05-25T05:50:46.449Z,18.10
2019-05-25T05:53:19.384Z,18.30
2019-05-25T05:55:49.993Z,18.40
2019-05-25T05:58:20.384Z,18.20
2019-05-25T06:00:50.974Z,18.50
2019-05-25T06:03:21.849Z,18.90
2019-05-25T06:05:52.410Z,18.90
2019-05-25T06:08:23.381Z,19.00
2019-05-25T06:10:53.838Z,19.10
2019-05-25T06:13:25.468Z,19.10
2019-05-25T06:15:56.196Z,19.20
2019-05-25T06:18:27.662Z,19.20
2019-05-25T06:20:58.396Z,19.30
2019-05-25T06:23:29.088Z,19.40
2019-05-25T06:26:02.560Z,19.40
2019-05-25T06:28:33.066Z,19.60
2019-05-25T06:31:03.671Z,17.70
2019-05-25T06:33:33.911Z,20.50
2019-05-25T06:36:04.582Z,19.60
2019-05-25T06:38:34.957Z,19.70
2019-05-25T06:43:34.465Z,19.60
2019-05-25T06:46:04.598Z,19.60
2019-05-25T06:51:07.134Z,19.10
2019-05-25T06:53:37.294Z,19.70
2019-05-25T06:56:09.163Z,21.30
2019-05-25T06:58:39.489Z,19.80
2019-05-25T07:01:09.930Z,20.70
2019-05-25T07:03:40.221Z,19.90
2019-05-25T07:06:11.516Z,20.00
2019-05-25T07:08:42.489Z,20.00
2019-05-25T07:11:13.863Z,20.10
2019-05-25T07:13:44.063Z,20.20
2019-05-25T07:16:14.183Z,20.30
2019-05-25T07:18:44.309Z,20.30
2019-05-25T07:21:17.250Z,20.30
2019-05-25T07:23:50.400Z,20.50
2019-05-25T07:26:20.624Z,20.50
2019-05-25T07:28:50.946Z,20.60
2019-05-25T07:31:21.537Z,20.60
2019-05-25T07:33:51.638Z,20.70
2019-05-25T07:36:22.145Z,20.70
2019-05-25T07:38:53.376Z,20.90
2019-05-25T07:41:25.079Z,21.10
2019-05-25T07:43:56.324Z,21.30
2019-05-25T07:46:27.758Z,21.30
2019-05-25T07:48:59.058Z,21.30
2019-05-25T07:51:29.292Z,21.30
2019-05-25T07:53:59.453Z,21.30
2019-05-25T07:56:30.001Z,21.40
2019-05-25T07:59:00.071Z,21.40
2019-05-25T08:01:30.317Z,21.50
2019-05-25T08:04:00.851Z,21.50
2019-05-25T08:06:31.995Z,21.50
2019-05-25T08:09:02.399Z,21.40
2019-05-25T08:11:32.829Z,21.20
2019-05-25T08:14:03.125Z,21.00
2019-05-25T08:16:33.377Z,21.00
2019-05-25T08:19:03.586Z,21.10
2019-05-25T08:21:33.810Z,21.20
2019-05-25T08:24:05.197Z,22.20
2019-05-25T08:26:36.006Z,21.50
2019-05-25T08:29:06.266Z,21.70
2019-05-25T08:31:36.843Z,21.90
2019-05-25T08:39:13.068Z,22.00
2019-05-25T08:41:45.580Z,21.90
2019-05-25T08:44:15.660Z,22.00
2019-05-25T08:46:45.953Z,21.90
2019-05-25T08:49:16.561Z,22.20
2019-05-25T08:54:18.678Z,22.00
2019-05-25T08:56:49.811Z,22.10
2019-05-25T08:59:20.963Z,22.10
2019-05-25T09:09:22.152Z,22.50
2019-05-25T09:11:53.200Z,22.50
2019-05-25T09:14:25.049Z,22.70
2019-05-25T09:16:55.556Z,22.90
2019-05-25T09:19:26.830Z,22.70
2019-05-25T09:22:02.562Z,22.80
2019-05-25T09:24:30.094Z,22.70
2019-05-25T09:27:01.237Z,22.60
2019-05-25T09:29:31.966Z,22.50
2019-05-25T09:32:06.890Z,22.40
2019-05-25T09:34:36.010Z,22.30
2019-05-25T09:37:07.171Z,22.20
2019-05-25T09:39:37.980Z,22.10
2019-05-25T09:44:39.613Z,21.90
2019-05-25T09:47:10.254Z,21.80
2019-05-25T09:49:40.402Z,21.60
2019-05-25T09:52:11.968Z,21.60
2019-05-25T09:54:42.194Z,21.60
2019-05-25T09:57:13.975Z,20.60
2019-05-25T09:59:44.458Z,21.40
2019-05-25T10:02:14.917Z,21.30
2019-05-25T10:09:48.393Z,21.30
2019-05-25T10:12:18.938Z,21.20
2019-05-25T10:14:49.078Z,20.50
2019-05-25T10:17:20.301Z,21.30
2019-05-25T10:24:49.665Z,21.10
2019-05-25T10:29:50.127Z,20.90
2019-05-25T10:32:20.221Z,20.80
2019-05-25T10:34:50.639Z,20.80
2019-05-25T10:37:22.311Z,20.70
2019-05-25T10:39:52.545Z,19.40
2019-05-25T10:42:23.549Z,20.60
2019-05-25T10:44:53.987Z,20.70
2019-05-25T10:47:24.498Z,20.70
2019-05-25T10:49:54.614Z,20.80
2019-05-25T10:52:26.579Z,20.20
2019-05-25T10:54:58.437Z,21.20
2019-05-25T10:57:29.285Z,21.40
2019-05-25T11:00:00.388Z,21.50
2019-05-25T11:02:32.508Z,21.70
2019-05-25T11:05:03.124Z,21.90
2019-05-25T11:07:34.418Z,20.10
2019-05-25T11:15:08.647Z,22.40
2019-05-25T11:20:15.319Z,22.60
2019-05-25T11:22:45.429Z,22.90
2019-05-25T11:25:17.522Z,23.10
2019-05-25T11:27:47.807Z,23.30
2019-05-25T11:30:19.234Z,25.20
2019-05-25T11:32:49.498Z,23.60
2019-05-25T11:35:19.942Z,23.70
2019-05-25T11:37:50.736Z,23.70
2019-05-25T11:40:21.414Z,23.80
2019-05-25T11:42:53.256Z,23.70
2019-05-25T11:45:26.872Z,23.70
2019-05-25T11:47:59.058Z,23.90
2019-05-25T11:50:29.205Z,24.00
2019-05-25T11:53:05.783Z,24.80
2019-05-25T11:55:34.785Z,23.90
2019-05-25T11:58:06.767Z,23.70
2019-05-25T12:00:37.373Z,23.70
2019-05-25T12:03:09.160Z,23.70
2019-05-25T12:05:39.672Z,23.60
2019-05-25T12:08:11.893Z,23.40
2019-05-25T12:10:42.617Z,23.30
2019-05-25T12:13:13.366Z,23.20
2019-05-25T12:15:43.678Z,23.20
2019-05-25T12:18:13.918Z,23.20
2019-05-25T12:23:16.688Z,23.30
2019-05-25T12:25:46.968Z,23.40
2019-05-25T12:28:19.014Z,23.30
2019-05-25T12:30:50.746Z,23.40
2019-05-25T12:35:52.047Z,23.60
2019-05-25T12:43:27.182Z,24.10
2019-05-25T12:45:57.275Z,24.20
2019-05-25T12:48:27.954Z,23.90
2019-05-25T12:50:58.186Z,24.50
2019-05-25T12:53:28.554Z,24.50
2019-05-25T12:55:58.740Z,24.50
2019-05-25T13:01:01.648Z,24.40
2019-05-25T13:03:32.045Z,24.40
2019-05-25T13:06:02.615Z,24.40
2019-05-25T13:08:34.253Z,24.40
2019-05-25T13:13:34.220Z,25.50
2019-05-25T13:16:04.413Z,24.20
2019-05-25T13:18:34.907Z,27.70
2019-05-25T13:21:05.542Z,25.40
2019-05-25T13:23:35.806Z,25.30
2019-05-25T13:28:37.658Z,26.00
2019-05-25T13:31:11.761Z,26.00
2019-05-25T13:36:10.079Z,25.70
2019-05-25T13:38:40.171Z,25.70
2019-05-25T13:41:10.384Z,24.90
2019-05-25T13:43:40.503Z,24.10
2019-05-25T13:46:10.781Z,23.30
2019-05-25T13:48:40.950Z,21.90
2019-05-25T13:51:11.199Z,23.50
2019-05-25T13:53:41.445Z,22.30
2019-05-25T13:56:12.267Z,22.00
2019-05-25T13:58:42.560Z,21.60
2019-05-25T14:01:27.535Z,21.30
2019-05-25T14:06:17.159Z,20.70
2019-05-25T14:08:47.881Z,20.30
2019-05-25T14:11:17.960Z,19.90
2019-05-25T14:13:50.354Z,19.50
2019-05-25T14:16:21.439Z,19.30
2019-05-25T14:18:51.651Z,19.10
2019-05-25T14:23:55.192Z,18.90
2019-05-25T14:28:55.007Z,18.90
2019-05-25T14:33:55.033Z,18.40
2019-05-25T14:36:25.211Z,18.30
2019-05-25T14:38:56.759Z,18.40
2019-05-25T14:46:28.212Z,18.20
2019-05-25T14:48:58.716Z,18.10
2019-05-25T14:51:29.284Z,18.10
2019-05-25T14:53:59.329Z,18.10
2019-05-25T14:58:59.590Z,18.10
2019-05-25T15:01:30.512Z,18.30
2019-05-25T15:04:02.092Z,18.10
2019-05-25T15:06:32.618Z,18.30
2019-05-25T15:09:04.060Z,18.50
2019-05-25T15:14:04.621Z,18.50
2019-05-25T15:16:35.598Z,18.70
2019-05-25T15:21:39.379Z,18.80
2019-05-25T15:24:09.567Z,19.00
2019-05-25T15:29:11.480Z,19.20
2019-05-25T15:34:13.438Z,19.40
2019-05-25T15:36:43.610Z,19.50
2019-05-25T15:39:14.163Z,19.60
2019-05-25T15:41:44.331Z,19.70
2019-05-25T15:46:44.822Z,19.90
2019-05-25T15:49:15.152Z,19.90
2019-05-25T15:54:15.100Z,20.30
2019-05-25T15:59:14.843Z,20.60
2019-05-25T16:01:45.430Z,20.60
2019-05-25T16:04:15.671Z,20.70
2019-05-25T16:06:45.916Z,20.80
2019-05-25T16:09:16.087Z,20.80
2019-05-25T16:11:46.994Z,20.90
2019-05-25T16:14:17.490Z,21.00
2019-05-25T16:16:48.016Z,21.10
2019-05-25T16:19:18.950Z,21.20
2019-05-25T16:21:50.894Z,21.20
2019-05-25T16:29:22.522Z,21.30
2019-05-25T16:31:52.707Z,21.20
2019-05-25T16:34:24.365Z,21.20
2019-05-25T16:36:54.882Z,21.10
2019-05-25T16:39:24.975Z,21.30
2019-05-25T16:41:55.592Z,21.30
2019-05-25T16:44:25.630Z,21.30
2019-05-25T16:49:25.799Z,21.00
2019-05-25T16:51:56.045Z,20.80
2019-05-25T16:59:27.877Z,20.30
2019-05-25T17:02:00.086Z,20.10
2019-05-25T17:04:30.264Z,20.00
2019-05-25T17:09:30.515Z,19.90
2019-05-25T17:14:30.453Z,19.60
2019-05-25T17:19:31.078Z,19.50
2019-05-25T17:24:31.814Z,19.30
2019-05-25T17:29:32.952Z,19.10
2019-05-25T17:32:03.434Z,18.50
2019-05-25T17:34:33.965Z,19.10
2019-05-25T17:37:04.428Z,19.10
2019-05-25T17:39:36.986Z,19.10
2019-05-25T17:49:37.970Z,18.90
2019-05-25T17:52:09.603Z,22.10
2019-05-25T17:54:39.725Z,18.80
2019-05-25T17:57:09.797Z,18.80
2019-05-25T17:59:40.484Z,18.80
2019-05-25T18:04:42.294Z,18.50
2019-05-25T18:12:12.105Z,18.40
2019-05-25T18:14:42.600Z,18.40
2019-05-25T18:22:12.003Z,18.30
2019-05-25T18:24:42.390Z,18.40
2019-05-25T18:29:42.703Z,18.20
2019-05-25T18:32:12.891Z,17.60
2019-05-25T18:39:43.231Z,18.90
2019-05-25T18:44:43.433Z,18.10
2019-05-25T18:47:13.606Z,18.10
2019-05-25T19:04:50.094Z,17.80
2019-05-25T19:07:16.973Z,17.90
2019-05-25T19:09:48.025Z,17.40
2019-05-25T19:12:19.276Z,18.70
2019-05-25T19:22:19.553Z,17.80
2019-05-25T19:24:50.123Z,18.50
2019-05-25T19:27:20.518Z,17.70
2019-05-25T19:29:50.906Z,17.70
2019-05-25T19:32:21.289Z,17.70
2019-05-25T19:37:27.106Z,17.70
2019-05-25T19:45:06.667Z,17.10
2019-05-25T19:52:43.842Z,17.30
2019-05-25T19:57:46.255Z,16.80
2019-05-25T20:00:17.117Z,16.80
2019-05-25T20:02:47.299Z,16.80
2019-05-25T20:05:20.248Z,16.70
2019-05-25T20:07:50.430Z,16.70
2019-05-25T20:10:23.144Z,16.70
2019-05-25T20:22:52.566Z,18.60
2019-05-25T20:27:53.064Z,16.50
2019-05-25T20:30:23.627Z,16.40
2019-05-25T20:32:53.965Z,15.70
2019-05-25T20:40:25.151Z,16.60
2019-05-25T20:42:55.323Z,16.60
2019-05-25T20:45:25.507Z,16.70
2019-05-25T20:50:25.064Z,16.80
2019-05-25T20:52:55.266Z,16.70
2019-05-25T20:57:55.808Z,16.70
2019-05-25T21:05:28.167Z,16.70
2019-05-25T21:07:58.220Z,16.70
2019-05-25T21:10:28.448Z,16.60
2019-05-25T21:12:58.827Z,16.70
2019-05-25T21:17:58.625Z,16.70
2019-05-25T21:20:28.818Z,16.60
2019-05-25T21:22:59.123Z,16.70
2019-05-25T21:27:58.919Z,16.60
2019-05-25T21:30:29.006Z,16.50
2019-05-25T21:32:59.280Z,16.50
2019-05-25T21:37:59.352Z,16.50
2019-05-25T21:40:29.797Z,16.30
2019-05-25T21:42:59.958Z,16.40
2019-05-25T21:45:30.339Z,16.40
2019-05-25T21:48:00.475Z,16.30
2019-05-25T21:50:30.787Z,16.30
2019-05-25T21:53:00.838Z,16.30
2019-05-25T21:55:31.141Z,16.30
2019-05-25T22:05:35.168Z,16.20
2019-05-25T22:08:05.418Z,16.20
2019-05-25T22:10:35.528Z,16.40
2019-05-25T22:18:04.470Z,16.10
2019-05-25T22:20:34.923Z,16.20
2019-05-25T22:23:05.268Z,16.20
2019-05-25T22:25:35.364Z,16.20
2019-05-25T22:28:05.442Z,16.30
2019-05-25T22:30:35.891Z,16.90
2019-05-25T22:33:06.037Z,16.30
2019-05-25T22:35:37.162Z,16.20
2019-05-25T22:38:07.638Z,16.20
2019-05-25T22:40:38.870Z,19.20
2019-05-25T22:43:09.093Z,16.40
2019-05-25T22:45:40.547Z,17.10
2019-05-25T22:48:10.558Z,16.30
2019-05-25T22:50:40.837Z,16.30
2019-05-25T22:53:11.351Z,16.30
2019-05-25T22:55:41.446Z,16.20
2019-05-25T22:58:12.200Z,16.40
2019-05-25T23:00:42.231Z,16.20
2019-05-25T23:05:42.887Z,16.40
2019-05-25T23:08:13.400Z,16.50
2019-05-25T23:10:43.562Z,16.40
2019-05-25T23:13:14.378Z,16.50
2019-05-25T23:15:44.502Z,16.50
2019-05-25T23:20:44.342Z,17.10
2019-05-25T23:23:14.761Z,16.40
2019-05-25T23:25:44.782Z,16.10
2019-05-25T23:28:14.829Z,16.10
2019-05-25T23:30:44.916Z,16.80
2019-05-25T23:33:15.075Z,16.10
2019-05-25T23:35:45.243Z,16.00
2019-05-25T23:38:15.895Z,16.10
2019-05-25T23:40:46.343Z,16.00
2019-05-25T23:43:16.489Z,15.70
2019-05-25T23:45:47.914Z,15.30
2019-05-25T23:48:18.295Z,15.90
2019-05-25T23:50:48.484Z,15.80
2019-05-25T23:53:21.521Z,15.90
2019-05-25T23:55:51.643Z,15.90
2019-05-25T23:58:21.831Z,15.90
